createdAt,value
2023-04-08T00:02:00.536Z,73.78
2023-04-08T00:05:03.305Z,73.87
2023-04-08T00:08:07.021Z,73.57
2023-04-08T00:11:09.536Z,73.68
2023-04-08T00:14:13.676Z,73.86
2023-04-08T00:17:16.738Z,74.37
2023-04-08T00:20:19.479Z,73.96
2023-04-08T00:23:22.500Z,74.32
2023-04-08T00:26:25.007Z,74.72
2023-04-08T00:29:28.857Z,74.04
2023-04-08T00:32:31.478Z,74.81
2023-04-08T00:35:34.144Z,75.00
2023-04-08T00:38:36.800Z,74.73
2023-04-08T00:41:39.329Z,75.27
2023-04-08T00:44:43.185Z,74.86
2023-04-08T00:47:46.717Z,75.79
2023-04-08T00:50:49.274Z,74.36
2023-04-08T00:53:51.792Z,75.95
2023-04-08T00:56:54.336Z,74.56
2023-04-08T00:59:58.232Z,74.33
2023-04-08T01:03:07.135Z,74.23
2023-04-08T01:06:14.859Z,74.47
2023-04-08T01:09:19.839Z,74.02
2023-04-08T01:12:27.234Z,73.81
2023-04-08T01:15:32.003Z,73.17
2023-04-08T01:18:36.583Z,73.10
2023-04-08T01:21:39.764Z,73.71
2023-04-08T01:24:44.342Z,74.00
2023-04-08T01:27:49.808Z,74.14
2023-04-08T01:30:52.796Z,73.23
2023-04-08T01:33:56.464Z,74.59
2023-04-08T01:36:59.486Z,73.53
2023-04-08T01:40:02.597Z,73.66
2023-04-08T01:43:09.168Z,73.59
2023-04-08T01:46:12.920Z,73.41
2023-04-08T01:49:16.910Z,72.94
2023-04-08T01:52:19.930Z,73.01
2023-04-08T01:55:22.879Z,72.67
2023-04-08T01:58:28.931Z,73.10
2023-04-08T02:01:31.855Z,73.45
2023-04-08T02:04:35.389Z,74.61
2023-04-08T02:07:38.134Z,73.82
2023-04-08T02:10:40.795Z,74.47
2023-04-08T02:13:44.707Z,75.39
2023-04-08T02:16:51.386Z,75.64
2023-04-08T02:20:00.009Z,74.48
2023-04-08T02:23:07.414Z,75.25
2023-04-08T02:26:15.003Z,74.65
2023-04-08T02:29:20.300Z,75.15
2023-04-08T02:32:23.878Z,74.84
2023-04-08T02:35:26.901Z,74.89
2023-04-08T02:38:30.673Z,75.21
2023-04-08T02:41:33.106Z,74.61
2023-04-08T02:44:37.027Z,75.35
2023-04-08T02:47:39.664Z,75.68
2023-04-08T02:50:42.258Z,75.35
2023-04-08T02:53:44.744Z,75.68
2023-04-08T02:56:47.310Z,75.90
2023-04-08T02:59:51.206Z,75.72
2023-04-08T03:02:54.202Z,75.56
2023-04-08T03:05:57.257Z,75.60
2023-04-08T03:08:59.880Z,74.94
2023-04-08T03:12:02.528Z,75.35
2023-04-08T03:15:07.484Z,76.20
2023-04-08T03:18:10.267Z,76.02
2023-04-08T03:21:12.835Z,75.72
2023-04-08T03:24:15.617Z,75.77
2023-04-08T03:27:19.210Z,75.24
2023-04-08T03:30:23.245Z,75.37
2023-04-08T03:33:26.089Z,75.30
2023-04-08T03:36:28.630Z,75.04
2023-04-08T03:39:31.239Z,74.97
2023-04-08T03:42:35.071Z,74.61
2023-04-08T03:45:38.986Z,74.47
2023-04-08T03:48:41.565Z,74.68
2023-04-08T03:51:44.093Z,74.32
2023-04-08T03:54:47.624Z,75.04
2023-04-08T03:57:50.161Z,74.45
2023-04-08T04:00:54.540Z,74.68
2023-04-08T04:03:57.223Z,74.76
2023-04-08T04:06:59.870Z,74.54
2023-04-08T04:10:02.398Z,74.85
2023-04-08T04:13:05.765Z,75.13
2023-04-08T04:16:09.710Z,75.44
2023-04-08T04:19:12.410Z,75.00
2023-04-08T04:22:14.988Z,75.61
2023-04-08T04:25:17.672Z,75.80
2023-04-08T04:28:20.327Z,76.38
2023-04-08T04:31:26.411Z,77.02
2023-04-08T04:34:29.175Z,76.88
2023-04-08T04:37:31.763Z,77.41
2023-04-08T04:40:34.322Z,78.17
2023-04-08T04:43:36.950Z,78.73
2023-04-08T04:46:40.804Z,78.30
2023-04-08T04:49:43.415Z,78.62
2023-04-08T04:52:46.455Z,79.38
2023-04-08T04:55:49.078Z,80.65
2023-04-08T04:58:51.895Z,80.78
2023-04-08T05:01:57.573Z,80.47
2023-04-08T05:05:00.539Z,81.44
2023-04-08T05:08:03.127Z,81.60
2023-04-08T05:11:06.012Z,81.96
2023-04-08T05:14:10.666Z,80.88
2023-04-08T05:17:14.548Z,81.38
2023-04-08T05:20:17.740Z,80.87
2023-04-08T05:23:20.385Z,80.88
2023-04-08T05:26:23.156Z,81.38
2023-04-08T05:29:25.813Z,81.32
2023-04-08T05:32:30.977Z,81.12
2023-04-08T05:35:34.007Z,80.89
2023-04-08T05:38:36.589Z,80.20
2023-04-08T05:41:39.191Z,78.91
2023-04-08T05:44:43.907Z,77.22
2023-04-08T05:47:47.879Z,76.04
2023-04-08T05:50:50.691Z,76.01
2023-04-08T05:53:53.190Z,75.68
2023-04-08T05:56:55.777Z,75.67
2023-04-08T05:59:58.474Z,75.28
2023-04-08T06:03:02.828Z,74.33
2023-04-08T06:06:05.446Z,73.85
2023-04-08T06:09:08.839Z,74.27
2023-04-08T06:12:11.371Z,74.66
2023-04-08T06:15:13.973Z,73.62
2023-04-08T06:18:18.188Z,72.83
2023-04-08T06:21:21.627Z,72.27
2023-04-08T06:24:24.433Z,71.88
2023-04-08T06:27:27.202Z,71.28
2023-04-08T06:30:29.797Z,71.17
2023-04-08T06:33:34.485Z,71.21
2023-04-08T06:36:36.990Z,70.93
2023-04-08T06:39:40.187Z,71.31
2023-04-08T06:42:44.465Z,70.21
2023-04-08T06:45:47.401Z,69.57
2023-04-08T06:48:51.724Z,69.47
2023-04-08T06:51:54.528Z,68.94
2023-04-08T06:54:57.083Z,68.73
2023-04-08T06:57:59.717Z,68.04
2023-04-08T07:04:31.558Z,70.28
2023-04-08T07:07:34.163Z,68.49
2023-04-08T07:10:36.928Z,67.19
2023-04-08T07:13:39.657Z,67.52
2023-04-08T07:16:42.269Z,68.50
2023-04-08T07:19:47.161Z,67.78
2023-04-08T07:22:49.872Z,69.03
2023-04-08T07:25:52.499Z,66.86
2023-04-08T07:28:55.295Z,65.25
2023-04-08T07:31:57.911Z,63.32
2023-04-08T07:35:01.832Z,63.68
2023-04-08T07:38:04.532Z,62.12
2023-04-08T07:41:07.162Z,60.43
2023-04-08T07:44:09.878Z,59.68
2023-04-08T07:47:13.061Z,59.23
2023-04-08T07:50:17.380Z,57.73
2023-04-08T07:53:20.759Z,56.80
2023-04-08T07:56:24.824Z,57.16
2023-04-08T07:59:27.429Z,58.69
2023-04-08T08:02:30.156Z,56.98
2023-04-08T08:05:36.967Z,58.35
2023-04-08T08:08:39.601Z,55.76
2023-04-08T08:11:42.180Z,55.49
2023-04-08T08:14:44.677Z,54.77
2023-04-08T08:17:47.339Z,54.69
2023-04-08T08:20:51.199Z,54.40
2023-04-08T08:23:54.846Z,55.59
2023-04-08T08:26:57.696Z,54.40
2023-04-08T08:30:00.289Z,53.98
2023-04-08T08:33:02.942Z,54.14
2023-04-08T08:36:07.311Z,54.03
2023-04-08T08:39:10.086Z,54.04
2023-04-08T08:42:21.453Z,53.35
2023-04-08T08:45:23.973Z,54.16
2023-04-08T08:48:26.685Z,54.46
2023-04-08T08:51:32.680Z,51.98
2023-04-08T08:54:35.780Z,50.26
2023-04-08T08:57:38.292Z,50.11
2023-04-08T09:00:42.454Z,48.47
2023-04-08T09:03:45.216Z,48.49
2023-04-08T09:06:50.953Z,48.15
2023-04-08T09:09:54.317Z,47.93
2023-04-08T09:12:57.629Z,46.64
2023-04-08T09:16:04.911Z,46.83
2023-04-08T09:19:11.610Z,45.63
2023-04-08T09:22:15.813Z,46.22
2023-04-08T09:25:24.710Z,44.82
2023-04-08T09:28:27.388Z,43.72
2023-04-08T09:31:31.900Z,44.85
2023-04-08T09:34:34.725Z,45.14
2023-04-08T09:37:38.796Z,44.06
2023-04-08T09:40:42.484Z,41.77
2023-04-08T09:43:49.412Z,41.03
2023-04-08T09:46:57.848Z,42.08
2023-04-08T09:50:04.675Z,40.32
2023-04-08T09:53:11.289Z,38.27
2023-04-08T09:56:16.227Z,41.00
2023-04-08T09:59:21.686Z,40.48
2023-04-08T10:02:28.338Z,38.38
2023-04-08T10:05:31.348Z,35.92
2023-04-08T10:08:35.953Z,35.36
2023-04-08T10:11:38.615Z,35.01
2023-04-08T10:14:41.259Z,36.21
2023-04-08T10:17:43.897Z,36.57
2023-04-08T10:20:47.416Z,38.39
2023-04-08T10:23:59.300Z,37.32
2023-04-08T10:27:04.296Z,37.25
2023-04-08T10:30:40.008Z,35.50
2023-04-08T10:33:42.748Z,37.29
2023-04-08T10:36:45.512Z,36.58
2023-04-08T10:39:52.995Z,37.80
2023-04-08T10:42:55.889Z,37.08
2023-04-08T10:45:58.497Z,38.25
2023-04-08T10:49:01.604Z,37.21
2023-04-08T10:52:08.008Z,37.42
2023-04-08T10:55:12.038Z,37.53
2023-04-08T10:58:14.656Z,38.14
2023-04-08T11:01:17.341Z,39.04
2023-04-08T11:04:20.710Z,38.80
2023-04-08T11:07:23.396Z,38.22
2023-04-08T11:10:28.675Z,37.79
2023-04-08T11:13:31.891Z,37.03
2023-04-08T11:16:35.234Z,36.00
2023-04-08T11:19:39.238Z,35.71
2023-04-08T11:22:42.006Z,36.88
2023-04-08T11:25:47.099Z,35.45
2023-04-08T11:28:51.544Z,35.65
2023-04-08T11:31:54.150Z,35.39
2023-04-08T11:34:56.753Z,36.91
2023-04-08T11:37:59.605Z,36.80
2023-04-08T11:41:03.626Z,37.33
2023-04-08T11:44:06.903Z,37.24
2023-04-08T11:47:09.688Z,38.19
2023-04-08T11:50:12.320Z,38.25
2023-04-08T11:53:19.758Z,38.01
2023-04-08T11:56:24.561Z,38.79
2023-04-08T11:59:29.487Z,38.95
2023-04-08T12:02:32.585Z,39.49
2023-04-08T12:05:35.583Z,38.91
2023-04-08T12:08:39.219Z,40.03
2023-04-08T12:11:43.343Z,40.02
2023-04-08T12:14:45.986Z,39.54
2023-04-08T12:17:48.563Z,39.62
2023-04-08T12:20:51.209Z,38.61
2023-04-08T12:23:53.891Z,38.01
2023-04-08T12:26:57.816Z,37.70
2023-04-08T12:30:00.402Z,37.85
2023-04-08T12:33:04.068Z,36.75
2023-04-08T12:36:07.189Z,37.01
2023-04-08T12:39:09.856Z,36.43
2023-04-08T12:42:13.817Z,36.25
2023-04-08T12:45:16.558Z,36.14
2023-04-08T12:48:19.277Z,36.63
2023-04-08T12:51:21.808Z,37.19
2023-04-08T12:54:24.364Z,36.94
2023-04-08T12:57:28.377Z,37.03
2023-04-08T13:00:31.092Z,36.51
2023-04-08T13:03:35.190Z,36.07
2023-04-08T13:06:37.820Z,37.11
2023-04-08T13:09:40.588Z,36.46
2023-04-08T13:12:44.510Z,36.76
2023-04-08T13:15:47.122Z,37.09
2023-04-08T13:18:49.904Z,37.13
2023-04-08T13:21:53.045Z,38.24
2023-04-08T13:24:55.555Z,38.23
2023-04-08T13:27:59.507Z,38.76
2023-04-08T13:31:02.001Z,39.09
2023-04-08T13:34:05.097Z,38.12
2023-04-08T13:37:07.747Z,38.77
2023-04-08T13:40:12.229Z,39.14
2023-04-08T13:43:16.314Z,39.56
2023-04-08T13:46:19.002Z,40.42
2023-04-08T13:49:21.664Z,39.67
2023-04-08T13:52:24.255Z,40.05
2023-04-08T13:55:26.773Z,39.72
2023-04-08T13:58:31.488Z,39.24
2023-04-08T14:01:34.349Z,39.68
2023-04-08T14:04:37.525Z,39.37
2023-04-08T14:07:40.144Z,39.16
2023-04-08T14:10:42.759Z,38.64
2023-04-08T14:13:46.723Z,38.90
2023-04-08T14:16:49.643Z,37.96
2023-04-08T14:19:52.240Z,36.44
2023-04-08T14:22:56.715Z,36.74
2023-04-08T14:26:01.409Z,39.21
2023-04-08T14:29:06.015Z,39.73
2023-04-08T14:32:08.623Z,40.66
2023-04-08T14:35:11.442Z,41.04
2023-04-08T14:38:14.134Z,40.59
2023-04-08T14:41:16.785Z,40.48
2023-04-08T14:44:20.965Z,40.46
2023-04-08T14:47:23.592Z,41.10
2023-04-08T14:50:26.543Z,40.98
2023-04-08T14:53:29.371Z,41.09
2023-04-08T14:56:32.512Z,40.36
2023-04-08T14:59:36.607Z,40.19
2023-04-08T15:02:39.254Z,40.44
2023-04-08T15:05:42.833Z,41.50
2023-04-08T15:08:45.727Z,41.46
2023-04-08T15:11:48.343Z,41.97
2023-04-08T15:14:52.173Z,41.84
2023-04-08T15:17:54.709Z,41.57
2023-04-08T15:20:58.098Z,41.08
2023-04-08T15:24:00.897Z,40.96
2023-04-08T15:27:03.466Z,40.63
2023-04-08T15:30:08.903Z,41.45
2023-04-08T15:33:12.617Z,41.53
2023-04-08T15:36:19.583Z,42.10
2023-04-08T15:39:22.530Z,43.06
2023-04-08T15:42:25.452Z,43.54
2023-04-08T15:45:29.617Z,43.60
2023-04-08T15:48:32.761Z,43.87
2023-04-08T15:51:35.343Z,43.55
2023-04-08T15:54:38.144Z,44.73
2023-04-08T15:57:40.838Z,45.11
2023-04-08T16:00:44.725Z,45.29
2023-04-08T16:03:47.457Z,45.67
2023-04-08T16:06:50.493Z,45.12
2023-04-08T16:09:52.996Z,45.37
2023-04-08T16:12:55.493Z,45.33
2023-04-08T16:16:02.821Z,43.98
2023-04-08T16:19:05.475Z,44.74
2023-04-08T16:22:08.059Z,44.59
2023-04-08T16:25:11.124Z,44.44
2023-04-08T16:28:14.032Z,45.36
2023-04-08T16:31:18.964Z,45.12
2023-04-08T16:34:22.725Z,46.05
2023-04-08T16:37:25.557Z,46.67
2023-04-08T16:40:28.272Z,46.55
2023-04-08T16:43:31.098Z,46.80
2023-04-08T16:46:36.210Z,48.00
2023-04-08T16:49:38.757Z,48.27
2023-04-08T16:52:43.999Z,48.87
2023-04-08T16:55:46.539Z,49.34
2023-04-08T16:58:49.139Z,49.89
2023-04-08T17:01:53.079Z,50.04
2023-04-08T17:04:55.774Z,50.15
2023-04-08T17:07:58.501Z,50.64
2023-04-08T17:11:06.856Z,50.33
2023-04-08T17:14:10.093Z,50.98
2023-04-08T17:17:14.009Z,50.89
2023-04-08T17:20:16.666Z,50.65
2023-04-08T17:23:19.280Z,50.77
2023-04-08T17:26:23.452Z,51.07
2023-04-08T17:29:26.156Z,50.49
2023-04-08T17:32:30.171Z,50.59
2023-04-08T17:35:32.990Z,50.89
2023-04-08T17:38:39.707Z,51.15
2023-04-08T17:41:43.994Z,51.18
2023-04-08T17:44:48.350Z,51.80
2023-04-08T17:47:52.756Z,51.23
2023-04-08T17:51:00.610Z,51.50
2023-04-08T17:54:03.194Z,51.80
2023-04-08T17:57:05.794Z,52.00
2023-04-08T18:00:09.361Z,53.46
2023-04-08T18:03:13.228Z,53.15
2023-04-08T18:06:16.064Z,53.46
2023-04-08T18:09:19.042Z,53.59
2023-04-08T18:12:21.774Z,53.79
2023-04-08T18:15:24.395Z,53.91
2023-04-08T18:18:28.497Z,54.55
2023-04-08T18:21:31.467Z,54.26
2023-04-08T18:24:34.144Z,54.15
2023-04-08T18:27:36.612Z,54.35
2023-04-08T18:30:39.278Z,54.13
2023-04-08T18:33:43.230Z,54.27
2023-04-08T18:36:45.818Z,54.63
2023-04-08T18:39:48.540Z,54.29
2023-04-08T18:42:51.003Z,54.74
2023-04-08T18:45:53.902Z,54.91
2023-04-08T18:48:58.005Z,55.09
2023-04-08T18:52:02.938Z,55.86
2023-04-08T18:55:06.763Z,55.66
2023-04-08T18:58:09.310Z,55.50
2023-04-08T19:01:11.830Z,55.57
2023-04-08T19:04:16.667Z,55.99
2023-04-08T19:07:19.235Z,55.56
2023-04-08T19:10:23.506Z,56.08
2023-04-08T19:13:26.141Z,55.86
2023-04-08T19:16:28.680Z,55.95
2023-04-08T19:19:32.646Z,56.56
2023-04-08T19:22:35.233Z,56.71
2023-04-08T19:25:37.952Z,56.46
2023-04-08T19:28:40.444Z,55.89
2023-04-08T19:31:43.196Z,56.77
2023-04-08T19:34:47.290Z,55.82
2023-04-08T19:37:49.808Z,56.32
2023-04-08T19:40:52.276Z,56.42
2023-04-08T19:43:55.101Z,56.54
2023-04-08T19:46:57.917Z,56.40
2023-04-08T19:50:01.931Z,56.50
2023-04-08T19:53:04.548Z,56.80
2023-04-08T19:56:07.254Z,56.53
2023-04-08T19:59:10.888Z,56.75
2023-04-08T20:02:13.474Z,56.78
2023-04-08T20:05:17.673Z,56.51
2023-04-08T20:08:20.436Z,56.68
2023-04-08T20:11:23.023Z,56.74
2023-04-08T20:14:26.209Z,57.21
2023-04-08T20:17:28.900Z,57.45
2023-04-08T20:20:32.821Z,57.42
2023-04-08T20:23:39.296Z,57.00
2023-04-08T20:26:41.898Z,58.49
2023-04-08T20:29:44.385Z,58.95
2023-04-08T20:32:47.192Z,58.13
2023-04-08T20:35:53.323Z,57.60
2023-04-08T20:38:55.966Z,58.01
2023-04-08T20:41:59.087Z,57.52
2023-04-08T20:45:01.615Z,57.47
2023-04-08T20:48:04.405Z,57.86
2023-04-08T20:51:08.653Z,57.71
2023-04-08T20:54:11.205Z,57.84
2023-04-08T20:57:13.782Z,57.75
2023-04-08T21:00:17.298Z,58.23
2023-04-08T21:03:20.616Z,58.64
2023-04-08T21:06:24.703Z,58.61
2023-04-08T21:09:27.235Z,59.00
2023-04-08T21:12:29.732Z,59.12
2023-04-08T21:15:32.261Z,59.78
2023-04-08T21:18:35.078Z,60.11
2023-04-08T21:21:38.935Z,61.10
2023-04-08T21:24:41.451Z,60.76
2023-04-08T21:27:43.981Z,60.78
2023-04-08T21:30:46.611Z,61.20
2023-04-08T21:33:49.429Z,62.25
2023-04-08T21:36:53.439Z,62.22
2023-04-08T21:39:56.099Z,62.42
2023-04-08T21:42:58.643Z,62.81
2023-04-08T21:46:01.240Z,63.49
2023-04-08T21:49:04.011Z,63.84
2023-04-08T21:52:08.068Z,63.68
2023-04-08T21:55:11.408Z,63.70
2023-04-08T21:58:14.519Z,63.70
2023-04-08T22:01:17.091Z,63.72
2023-04-08T22:04:20.438Z,63.94
2023-04-08T22:07:24.305Z,63.77
2023-04-08T22:10:27.624Z,63.77
2023-04-08T22:13:30.377Z,64.31
2023-04-08T22:16:33.114Z,64.22
2023-04-08T22:19:35.846Z,64.51
2023-04-08T22:22:39.702Z,64.96
2023-04-08T22:25:42.692Z,65.46
2023-04-08T22:28:45.362Z,66.05
2023-04-08T22:31:47.894Z,66.75
2023-04-08T22:34:50.652Z,66.48
2023-04-08T22:37:54.489Z,66.98
2023-04-08T22:40:57.222Z,66.92
2023-04-08T22:44:00.673Z,66.98
2023-04-08T22:47:03.237Z,66.29
2023-04-08T22:50:07.007Z,66.52
2023-04-08T22:53:10.945Z,65.95
2023-04-08T22:56:13.495Z,66.29
2023-04-08T22:59:16.219Z,65.34
2023-04-08T23:02:18.788Z,65.95
2023-04-08T23:05:21.720Z,65.22
2023-04-08T23:08:25.712Z,65.60
2023-04-08T23:11:28.211Z,65.21
2023-04-08T23:14:30.750Z,65.03
2023-04-08T23:17:33.339Z,65.78
2023-04-08T23:20:35.925Z,65.43
2023-04-08T23:23:39.780Z,65.22
2023-04-08T23:26:42.242Z,65.64
2023-04-08T23:29:44.880Z,65.11
2023-04-08T23:32:47.472Z,65.94
2023-04-08T23:35:50.048Z,65.78
2023-04-08T23:38:54.264Z,65.97
2023-04-08T23:41:57.412Z,65.97
2023-04-08T23:45:00.166Z,66.19
2023-04-08T23:48:02.802Z,65.87
2023-04-08T23:51:06.081Z,66.41
2023-04-08T23:54:10.115Z,66.10
2023-04-08T23:57:12.722Z,66.09
